createdAt,value
2022-08-22T00:00:39.952Z,0
2022-08-22T00:01:56.252Z,0
2022-08-22T00:03:12.555Z,0
2022-08-22T00:04:28.830Z,0
2022-08-22T00:05:44.139Z,0
2022-08-22T00:07:00.433Z,0
2022-08-22T00:08:16.742Z,0
2022-08-22T00:09:33.020Z,0
2022-08-22T00:10:49.320Z,0
2022-08-22T00:12:05.607Z,0
2022-08-22T00:13:21.899Z,0
2022-08-22T00:14:38.198Z,0
2022-08-22T00:15:54.495Z,0
2022-08-22T00:17:10.779Z,0
2022-08-22T00:18:27.068Z,0
2022-08-22T00:19:43.366Z,0
2022-08-22T00:20:59.663Z,0
2022-08-22T00:22:14.974Z,0
2022-08-22T00:23:31.255Z,0
2022-08-22T00:24:47.553Z,0
2022-08-22T00:26:03.850Z,0
2022-08-22T00:27:20.131Z,0
2022-08-22T00:28:36.436Z,0
2022-08-22T00:29:52.722Z,0
2022-08-22T00:31:09.012Z,0
2022-08-22T00:32:25.304Z,0
2022-08-22T00:33:41.600Z,0
2022-08-22T00:34:57.895Z,0
2022-08-22T00:36:14.187Z,0
2022-08-22T00:37:30.490Z,0
2022-08-22T00:38:45.787Z,0
2022-08-22T00:40:02.081Z,0
2022-08-22T00:41:18.366Z,0
2022-08-22T00:42:34.663Z,0
2022-08-22T00:43:50.949Z,0
2022-08-22T00:45:07.250Z,0
2022-08-22T00:46:23.539Z,0
2022-08-22T00:47:39.832Z,0
2022-08-22T00:48:56.130Z,0
2022-08-22T00:50:12.437Z,0
2022-08-22T00:51:28.709Z,0
2022-08-22T00:52:45.001Z,0
2022-08-22T00:54:01.303Z,0
2022-08-22T00:55:16.601Z,0
2022-08-22T00:56:32.897Z,0
2022-08-22T00:57:49.192Z,0
2022-08-22T00:59:05.487Z,0
2022-08-22T01:00:21.784Z,0
2022-08-22T01:01:38.077Z,0
2022-08-22T01:02:54.372Z,0
2022-08-22T01:04:10.660Z,0
2022-08-22T01:05:26.950Z,0
2022-08-22T01:06:43.242Z,0
2022-08-22T01:07:59.541Z,0
2022-08-22T01:09:15.827Z,0
2022-08-22T01:10:32.125Z,0
2022-08-22T01:11:47.443Z,0
2022-08-22T01:13:03.718Z,0
2022-08-22T01:14:20.011Z,0
2022-08-22T01:15:36.307Z,0
2022-08-22T01:16:52.607Z,0
2022-08-22T01:18:08.894Z,0
2022-08-22T01:19:25.180Z,0
2022-08-22T01:20:41.474Z,0
2022-08-22T01:21:57.778Z,0
2022-08-22T01:23:14.069Z,0
2022-08-22T01:24:30.357Z,0
2022-08-22T01:25:46.652Z,0
2022-08-22T01:27:02.947Z,0
2022-08-22T01:28:18.259Z,0
2022-08-22T01:29:34.534Z,0
2022-08-22T01:30:50.834Z,0
2022-08-22T01:32:07.127Z,0
2022-08-22T01:33:23.421Z,0
2022-08-22T01:34:39.705Z,0
2022-08-22T01:35:55.996Z,0
2022-08-22T01:37:12.300Z,0
2022-08-22T01:38:28.592Z,0
2022-08-22T01:39:44.883Z,0
2022-08-22T01:41:01.176Z,0
2022-08-22T01:42:17.475Z,0
2022-08-22T01:43:33.767Z,0
2022-08-22T01:44:49.077Z,0
2022-08-22T01:46:05.362Z,0
2022-08-22T01:47:21.654Z,0
2022-08-22T01:48:37.939Z,0
2022-08-22T01:49:54.243Z,0
2022-08-22T01:51:10.530Z,0
2022-08-22T01:52:26.818Z,0
2022-08-22T01:53:43.115Z,0
2022-08-22T01:54:59.421Z,0
2022-08-22T01:56:15.715Z,0
2022-08-22T01:57:31.991Z,0
2022-08-22T01:58:48.293Z,0
2022-08-22T02:00:04.571Z,0
2022-08-22T02:01:19.880Z,0
2022-08-22T02:02:36.181Z,0
2022-08-22T02:03:52.474Z,0
2022-08-22T02:05:08.767Z,0
2022-08-22T02:06:25.056Z,0
2022-08-22T02:07:41.351Z,0
2022-08-22T02:08:57.645Z,0
2022-08-22T02:10:13.939Z,0
2022-08-22T02:11:30.224Z,0
2022-08-22T02:12:46.515Z,0
2022-08-22T02:14:02.811Z,0
2022-08-22T02:15:19.098Z,0
2022-08-22T02:16:35.407Z,0
2022-08-22T02:17:50.710Z,0
2022-08-22T02:19:07.005Z,0
2022-08-22T02:20:23.289Z,0
2022-08-22T02:21:39.578Z,0
2022-08-22T02:22:55.887Z,0
2022-08-22T02:24:12.165Z,0
2022-08-22T02:25:28.464Z,0
2022-08-22T02:26:44.748Z,0
2022-08-22T02:28:01.044Z,0
2022-08-22T02:29:17.337Z,0
2022-08-22T02:30:33.632Z,0
2022-08-22T02:31:49.927Z,0
2022-08-22T02:33:06.218Z,0
2022-08-22T02:34:21.524Z,0
2022-08-22T02:35:37.816Z,0
2022-08-22T02:36:54.104Z,0
2022-08-22T02:38:10.403Z,0
2022-08-22T02:39:26.699Z,0
2022-08-22T02:40:42.985Z,0
2022-08-22T02:41:59.288Z,0
2022-08-22T02:43:15.572Z,0
2022-08-22T02:44:31.860Z,0
2022-08-22T02:45:48.169Z,0
2022-08-22T02:47:04.455Z,0
2022-08-22T02:48:20.740Z,0
2022-08-22T02:49:37.026Z,0
2022-08-22T02:50:52.342Z,0
2022-08-22T02:52:08.644Z,0
2022-08-22T02:53:24.927Z,0
2022-08-22T02:54:41.233Z,0
2022-08-22T02:55:57.000Z,0
2022-08-22T02:57:13.814Z,0
2022-08-22T02:58:30.101Z,0
2022-08-22T02:59:46.400Z,0
2022-08-22T03:01:02.676Z,0
2022-08-22T03:02:18.967Z,0
2022-08-22T03:03:35.272Z,0
2022-08-22T03:04:51.567Z,0
2022-08-22T03:06:07.846Z,0
2022-08-22T03:07:23.162Z,0
2022-08-22T03:08:39.458Z,0
2022-08-22T03:09:55.757Z,0
2022-08-22T03:11:12.040Z,0
2022-08-22T03:12:28.340Z,0
2022-08-22T03:13:44.617Z,0
2022-08-22T03:15:00.920Z,0
2022-08-22T03:16:17.209Z,0
2022-08-22T03:17:33.510Z,0
2022-08-22T03:18:49.802Z,0
2022-08-22T03:20:06.080Z,0
2022-08-22T03:21:22.380Z,0
2022-08-22T03:22:38.674Z,0
2022-08-22T03:23:53.982Z,0
2022-08-22T03:25:10.274Z,0
2022-08-22T03:26:26.572Z,0
2022-08-22T03:27:42.853Z,0
2022-08-22T03:28:59.155Z,0
2022-08-22T03:30:15.448Z,0
2022-08-22T03:31:31.739Z,0
2022-08-22T03:32:48.022Z,0
2022-08-22T03:34:04.331Z,0
2022-08-22T03:35:20.607Z,0
2022-08-22T03:36:36.908Z,0
2022-08-22T03:37:53.198Z,0
2022-08-22T03:39:09.492Z,0
2022-08-22T03:40:24.817Z,0
2022-08-22T03:41:41.036Z,1
2022-08-22T03:42:57.338Z,0
2022-08-22T03:44:13.578Z,1
2022-08-22T03:45:29.813Z,1
2022-08-22T03:46:46.111Z,0
2022-08-22T03:48:02.357Z,2
2022-08-22T03:49:18.610Z,2
2022-08-22T03:50:34.839Z,1
2022-08-22T03:51:51.088Z,2
2022-08-22T03:53:07.331Z,2
2022-08-22T03:54:23.566Z,7
2022-08-22T03:55:39.807Z,4
2022-08-22T03:56:55.061Z,4
2022-08-22T03:58:11.316Z,6
2022-08-22T03:59:27.537Z,6
2022-08-22T04:00:43.773Z,13
2022-08-22T04:02:00.017Z,11
2022-08-22T04:03:16.258Z,12
2022-08-22T04:04:31.520Z,14
2022-08-22T04:05:47.745Z,17
2022-08-22T04:07:03.989Z,18
2022-08-22T04:08:20.215Z,18
2022-08-22T04:09:36.474Z,25
2022-08-22T04:10:52.701Z,26
2022-08-22T04:12:08.931Z,30
2022-08-22T04:13:25.187Z,31
2022-08-22T04:14:41.419Z,35
2022-08-22T04:15:57.658Z,40
2022-08-22T04:17:13.887Z,40
2022-08-22T04:18:30.132Z,46
2022-08-22T04:19:46.376Z,46
2022-08-22T04:21:01.623Z,50
2022-08-22T04:22:17.855Z,50
2022-08-22T04:23:34.111Z,53
2022-08-22T04:24:50.333Z,61
2022-08-22T04:26:06.569Z,63
2022-08-22T04:27:22.811Z,70
2022-08-22T04:28:39.059Z,71
2022-08-22T04:29:55.300Z,78
2022-08-22T04:31:11.525Z,81
2022-08-22T04:32:27.765Z,87
2022-08-22T04:33:44.011Z,90
2022-08-22T04:35:00.246Z,100
2022-08-22T04:36:16.498Z,98
2022-08-22T04:37:31.746Z,99
2022-08-22T04:38:47.976Z,107
2022-08-22T04:40:04.229Z,111
2022-08-22T04:41:20.468Z,113
2022-08-22T04:42:36.685Z,118
2022-08-22T04:43:52.932Z,121
2022-08-22T04:45:09.172Z,123
2022-08-22T04:46:25.414Z,130
2022-08-22T04:47:41.652Z,131
2022-08-22T04:48:57.890Z,136
2022-08-22T04:50:14.115Z,144
2022-08-22T04:51:30.366Z,147
2022-08-22T04:52:46.606Z,149
2022-08-22T04:54:01.859Z,151
2022-08-22T04:55:18.095Z,161
2022-08-22T04:56:34.345Z,166
2022-08-22T04:57:50.564Z,170
2022-08-22T04:59:06.809Z,183
2022-08-22T05:00:23.048Z,188
2022-08-22T05:01:39.283Z,192
2022-08-22T05:02:55.532Z,196
2022-08-22T05:04:11.767Z,201
2022-08-22T05:05:28.002Z,211
2022-08-22T05:06:44.248Z,218
2022-08-22T05:08:00.488Z,219
2022-08-22T05:09:16.718Z,226
2022-08-22T05:10:31.978Z,231
2022-08-22T05:11:48.213Z,235
2022-08-22T05:13:04.448Z,240
2022-08-22T05:14:20.683Z,245
2022-08-22T05:15:36.931Z,242
2022-08-22T05:16:53.171Z,251
2022-08-22T05:18:09.401Z,249
2022-08-22T05:19:25.661Z,250
2022-08-22T05:20:41.885Z,260
2022-08-22T05:21:58.120Z,266
2022-08-22T05:23:14.356Z,267
2022-08-22T05:24:30.593Z,271
2022-08-22T05:25:46.842Z,282
2022-08-22T05:27:02.086Z,283
2022-08-22T05:28:18.329Z,286
2022-08-22T05:29:34.577Z,291
2022-08-22T05:30:50.802Z,297
2022-08-22T05:32:07.041Z,305
2022-08-22T05:33:23.287Z,312
2022-08-22T05:34:39.520Z,322
2022-08-22T05:35:55.766Z,328
2022-08-22T05:37:12.011Z,333
2022-08-22T05:38:28.251Z,340
2022-08-22T05:39:44.489Z,345
2022-08-22T05:41:00.712Z,351
2022-08-22T05:42:16.960Z,361
2022-08-22T05:43:32.208Z,363
2022-08-22T05:44:48.456Z,368
2022-08-22T05:46:04.689Z,374
2022-08-22T05:47:20.924Z,379
2022-08-22T05:48:37.160Z,382
2022-08-22T05:49:53.416Z,388
2022-08-22T05:51:09.644Z,391
2022-08-22T05:52:25.886Z,396
2022-08-22T05:53:42.112Z,402
2022-08-22T05:54:58.363Z,396
2022-08-22T05:56:14.594Z,400
2022-08-22T05:57:30.837Z,407
2022-08-22T05:58:47.071Z,409
2022-08-22T06:00:02.336Z,408
2022-08-22T06:01:18.578Z,412
2022-08-22T06:02:34.803Z,413
2022-08-22T06:03:51.038Z,417
2022-08-22T06:05:07.280Z,417
2022-08-22T06:06:23.525Z,423
2022-08-22T06:07:39.762Z,427
2022-08-22T06:08:56.003Z,435
2022-08-22T06:10:12.245Z,431
2022-08-22T06:11:28.487Z,431
2022-08-22T06:12:44.707Z,432
2022-08-22T06:14:00.952Z,431
2022-08-22T06:15:17.185Z,433
2022-08-22T06:16:32.446Z,431
2022-08-22T06:17:48.694Z,429
2022-08-22T06:19:04.928Z,417
2022-08-22T06:20:21.167Z,418
2022-08-22T06:21:37.412Z,416
2022-08-22T06:22:53.649Z,417
2022-08-22T06:24:09.883Z,407
2022-08-22T06:25:26.123Z,394
2022-08-22T06:26:42.372Z,421
2022-08-22T06:27:58.596Z,416
2022-08-22T06:29:14.842Z,398
2022-08-22T06:30:31.068Z,378
2022-08-22T06:31:47.314Z,368
2022-08-22T06:33:02.579Z,370
2022-08-22T06:34:18.809Z,399
2022-08-22T06:35:35.055Z,467
2022-08-22T06:36:51.000Z,411
2022-08-22T06:38:07.513Z,405
2022-08-22T06:39:23.756Z,411
2022-08-22T06:40:39.996Z,367
2022-08-22T06:41:56.240Z,484
2022-08-22T06:43:12.492Z,335
2022-08-22T06:44:28.719Z,408
2022-08-22T06:45:44.946Z,538
2022-08-22T06:47:01.197Z,410
2022-08-22T06:48:17.426Z,411
2022-08-22T06:49:32.679Z,432
2022-08-22T06:50:48.923Z,482
2022-08-22T06:52:05.170Z,439
2022-08-22T06:53:21.410Z,455
2022-08-22T06:54:37.644Z,446
2022-08-22T06:55:53.878Z,429
2022-08-22T06:57:10.130Z,479
2022-08-22T06:58:26.367Z,465
2022-08-22T06:59:42.595Z,461
2022-08-22T07:00:58.829Z,468
2022-08-22T07:02:15.076Z,505
2022-08-22T07:03:31.319Z,525
2022-08-22T07:04:47.553Z,515
2022-08-22T07:06:02.801Z,504
2022-08-22T07:07:19.053Z,528
2022-08-22T07:08:35.289Z,529
2022-08-22T07:09:51.532Z,579
2022-08-22T07:11:07.763Z,577
2022-08-22T07:12:23.991Z,585
2022-08-22T07:13:40.245Z,579
2022-08-22T07:14:56.487Z,567
2022-08-22T07:16:12.725Z,629
2022-08-22T07:17:28.967Z,656
2022-08-22T07:18:45.197Z,669
2022-08-22T07:20:01.435Z,663
2022-08-22T07:21:17.692Z,671
2022-08-22T07:22:32.944Z,670
2022-08-22T07:23:49.171Z,645
2022-08-22T07:25:05.424Z,666
2022-08-22T07:26:21.649Z,668
2022-08-22T07:27:37.885Z,638
2022-08-22T07:28:54.126Z,636
2022-08-22T07:30:10.365Z,650
2022-08-22T07:31:26.619Z,675
2022-08-22T07:32:42.843Z,672
2022-08-22T07:33:59.081Z,706
2022-08-22T07:35:15.321Z,684
2022-08-22T07:36:31.560Z,685
2022-08-22T07:37:47.788Z,806
2022-08-22T07:39:03.056Z,721
2022-08-22T07:40:19.283Z,715
2022-08-22T07:41:35.537Z,552
2022-08-22T07:42:51.765Z,635
2022-08-22T07:44:08.007Z,707
2022-08-22T07:45:24.238Z,632
2022-08-22T07:46:40.476Z,695
2022-08-22T07:47:56.734Z,929
2022-08-22T07:49:12.963Z,768
2022-08-22T07:50:29.201Z,671
2022-08-22T07:51:45.441Z,744
2022-08-22T07:53:01.670Z,391
2022-08-22T07:54:17.910Z,687
2022-08-22T07:55:33.178Z,658
2022-08-22T07:56:49.419Z,678
2022-08-22T07:58:05.658Z,681
2022-08-22T07:59:21.897Z,679
2022-08-22T08:00:38.127Z,767
2022-08-22T08:01:54.375Z,790
2022-08-22T08:03:10.610Z,743
2022-08-22T08:04:26.846Z,750
2022-08-22T08:05:43.079Z,759
2022-08-22T08:06:59.340Z,794
2022-08-22T08:08:15.573Z,737
2022-08-22T08:09:31.809Z,814
2022-08-22T08:10:48.059Z,744
2022-08-22T08:12:03.304Z,777
2022-08-22T08:13:19.544Z,665
2022-08-22T08:14:35.767Z,678
2022-08-22T08:15:52.009Z,803
2022-08-22T08:17:08.258Z,777
2022-08-22T08:18:24.490Z,802
2022-08-22T08:19:39.754Z,720
2022-08-22T08:20:56.004Z,760
2022-08-22T08:22:12.228Z,746
2022-08-22T08:23:28.467Z,802
2022-08-22T08:24:44.723Z,822
2022-08-22T08:26:00.957Z,859
2022-08-22T08:27:17.186Z,773
2022-08-22T08:28:33.441Z,860
2022-08-22T08:29:49.679Z,884
2022-08-22T08:31:05.920Z,817
2022-08-22T08:33:38.404Z,860
2022-08-22T08:34:54.627Z,898
2022-08-22T08:36:09.895Z,923
2022-08-22T08:37:26.130Z,840
2022-08-22T08:38:42.367Z,833
2022-08-22T08:39:58.599Z,905
2022-08-22T08:41:14.847Z,974
2022-08-22T08:42:31.080Z,869
2022-08-22T08:43:47.334Z,804
2022-08-22T08:45:03.559Z,971
2022-08-22T08:46:19.799Z,819
2022-08-22T08:47:36.041Z,844
2022-08-22T08:48:52.282Z,842
2022-08-22T08:50:08.528Z,795
2022-08-22T08:51:24.770Z,932
2022-08-22T08:52:40.021Z,836
2022-08-22T08:53:56.261Z,842
2022-08-22T08:55:12.503Z,869
2022-08-22T08:56:28.742Z,748
2022-08-22T08:57:44.991Z,777
2022-08-22T08:59:01.231Z,857
2022-08-22T09:00:17.467Z,884
2022-08-22T09:01:33.690Z,901
2022-08-22T09:02:49.938Z,962
2022-08-22T09:04:06.168Z,976
2022-08-22T09:05:22.416Z,890
2022-08-22T09:06:38.654Z,893
2022-08-22T09:07:54.901Z,1037
2022-08-22T09:09:10.152Z,872
2022-08-22T09:10:26.388Z,1363
2022-08-22T09:11:42.626Z,1065
2022-08-22T09:12:58.871Z,1248
2022-08-22T09:14:15.110Z,1176
2022-08-22T09:15:31.346Z,1173
2022-08-22T09:16:47.594Z,1108
2022-08-22T09:18:03.842Z,1186
2022-08-22T09:19:20.079Z,1180
2022-08-22T09:20:36.315Z,1205
2022-08-22T09:21:52.551Z,1229
2022-08-22T09:23:08.788Z,1226
2022-08-22T09:24:25.041Z,1246
2022-08-22T09:25:40.292Z,1266
2022-08-22T09:26:56.526Z,1217
2022-08-22T09:28:12.758Z,1207
2022-08-22T09:29:29.001Z,1223
2022-08-22T09:30:45.253Z,1251
2022-08-22T09:32:01.479Z,1260
2022-08-22T09:33:17.722Z,1269
2022-08-22T09:34:33.964Z,1285
2022-08-22T09:35:50.204Z,1286
2022-08-22T09:37:06.443Z,1278
2022-08-22T09:38:22.678Z,1318
2022-08-22T09:39:38.919Z,1332
2022-08-22T09:40:55.161Z,1338
2022-08-22T09:42:10.413Z,1353
2022-08-22T09:43:26.653Z,1364
2022-08-22T09:44:42.889Z,1359
2022-08-22T09:45:59.129Z,1386
2022-08-22T09:47:15.378Z,1386
2022-08-22T09:48:31.604Z,1433
2022-08-22T09:49:47.854Z,1468
2022-08-22T09:51:04.094Z,1492
2022-08-22T09:52:20.325Z,1404
2022-08-22T09:53:36.570Z,1611
2022-08-22T09:54:52.806Z,1529
2022-08-22T09:56:09.041Z,1526
2022-08-22T09:57:25.283Z,1528
2022-08-22T09:58:40.552Z,1535
2022-08-22T09:59:56.789Z,1537
2022-08-22T10:01:13.011Z,1563
2022-08-22T10:02:29.252Z,1559
2022-08-22T10:03:45.499Z,1558
2022-08-22T10:05:01.727Z,1548
2022-08-22T10:06:17.978Z,1554
2022-08-22T10:07:34.210Z,1562
2022-08-22T10:08:50.451Z,1576
2022-08-22T10:10:06.685Z,1603
2022-08-22T10:11:22.922Z,1621
2022-08-22T10:12:39.160Z,1647
2022-08-22T10:13:55.401Z,1680
2022-08-22T10:15:10.655Z,1672
2022-08-22T10:16:26.900Z,1695
2022-08-22T10:17:43.148Z,1721
2022-08-22T10:18:59.372Z,1740
2022-08-22T10:20:15.617Z,1748
2022-08-22T10:21:31.870Z,1733
2022-08-22T10:22:48.102Z,1865
2022-08-22T10:24:04.337Z,1824
2022-08-22T10:25:20.585Z,1904
2022-08-22T10:26:36.807Z,1948
2022-08-22T10:27:53.049Z,1944
2022-08-22T10:29:09.287Z,2010
2022-08-22T10:30:25.527Z,1950
2022-08-22T10:31:40.785Z,2235
2022-08-22T10:32:57.024Z,2016
2022-08-22T10:34:13.261Z,1997
2022-08-22T10:35:29.499Z,2528
2022-08-22T10:36:45.744Z,1097
2022-08-22T10:38:01.984Z,4371
2022-08-22T10:39:18.228Z,2262
2022-08-22T10:40:34.472Z,1514
2022-08-22T10:41:50.707Z,3661
2022-08-22T10:43:06.932Z,2379
2022-08-22T10:44:23.181Z,2233
2022-08-22T10:45:39.411Z,2742
2022-08-22T10:46:55.650Z,2152
2022-08-22T10:48:10.906Z,3173
2022-08-22T10:49:27.161Z,3099
2022-08-22T10:50:43.385Z,1282
2022-08-22T10:51:59.617Z,4909
2022-08-22T10:53:15.875Z,1731
2022-08-22T10:54:32.108Z,4397
2022-08-22T10:55:48.352Z,4875
2022-08-22T10:57:04.585Z,3186
2022-08-22T10:58:20.810Z,3104
2022-08-22T10:59:37.050Z,2943
2022-08-22T11:00:53.292Z,4602
2022-08-22T11:02:09.539Z,5319
2022-08-22T11:03:25.771Z,3863
2022-08-22T11:04:41.028Z,4092
2022-08-22T11:05:57.260Z,5608
2022-08-22T11:07:13.513Z,1238
2022-08-22T11:08:29.730Z,4221
2022-08-22T11:09:45.974Z,2672
2022-08-22T11:11:02.223Z,4681
2022-08-22T11:12:18.447Z,3529
2022-08-22T11:13:34.699Z,5512
2022-08-22T11:14:50.938Z,3142
2022-08-22T11:16:07.170Z,5689
2022-08-22T11:17:23.402Z,4637
2022-08-22T11:18:39.636Z,6330
2022-08-22T11:19:55.875Z,1250
2022-08-22T11:21:11.134Z,3238
2022-08-22T11:22:27.376Z,5167
2022-08-22T11:23:43.607Z,1387
2022-08-22T11:24:59.855Z,4726
2022-08-22T11:26:16.093Z,1626
2022-08-22T11:27:32.336Z,4501
2022-08-22T11:28:48.582Z,5022
2022-08-22T11:30:04.818Z,5966
2022-08-22T11:31:21.040Z,1286
2022-08-22T11:32:37.288Z,3903
2022-08-22T11:33:53.520Z,1934
2022-08-22T11:35:09.766Z,2568
2022-08-22T11:36:25.998Z,3344
2022-08-22T11:37:41.251Z,2095
2022-08-22T11:38:57.494Z,2226
2022-08-22T11:40:13.729Z,2381
2022-08-22T11:41:29.982Z,1209
2022-08-22T11:42:46.205Z,4347
2022-08-22T11:44:02.449Z,5230
2022-08-22T11:45:18.686Z,5437
2022-08-22T11:46:34.926Z,5545
2022-08-22T11:47:51.167Z,5512
2022-08-22T11:49:07.416Z,6748
2022-08-22T11:50:23.641Z,7136
2022-08-22T11:51:39.887Z,3235
2022-08-22T11:52:56.118Z,897
2022-08-22T11:54:11.382Z,3782
2022-08-22T11:55:27.615Z,1435
2022-08-22T11:56:43.867Z,4358
2022-08-22T11:58:00.107Z,5780
2022-08-22T11:59:16.342Z,5965
2022-08-22T12:00:32.567Z,4757
2022-08-22T12:01:48.825Z,6140
2022-08-22T12:03:05.055Z,5276
2022-08-22T12:04:21.291Z,6336
2022-08-22T12:05:37.540Z,3656
2022-08-22T12:06:53.768Z,5566
2022-08-22T12:08:10.004Z,4988
2022-08-22T12:09:26.251Z,4833
2022-08-22T12:10:41.504Z,5016
2022-08-22T12:11:57.736Z,4733
2022-08-22T12:13:13.977Z,5863
2022-08-22T12:14:30.217Z,8656
2022-08-22T12:15:46.457Z,4110
2022-08-22T12:17:02.716Z,1364
2022-08-22T12:18:18.936Z,6725
2022-08-22T12:19:35.184Z,6588
2022-08-22T12:20:51.410Z,6660
2022-08-22T12:25:56.381Z,7228
2022-08-22T12:27:11.633Z,6989
2022-08-22T12:28:26.885Z,6720
2022-08-22T12:29:42.168Z,7043
2022-08-22T12:30:58.404Z,6963
2022-08-22T12:32:13.658Z,6757
2022-08-22T12:33:29.907Z,6936
2022-08-22T12:34:45.160Z,6635
2022-08-22T12:36:00.415Z,7163
2022-08-22T12:37:16.658Z,7191
2022-08-22T12:38:32.893Z,6971
2022-08-22T12:39:49.143Z,7336
2022-08-22T12:41:05.374Z,7881
2022-08-22T12:42:21.620Z,8449
2022-08-22T12:43:37.850Z,5091
2022-08-22T12:44:54.098Z,8850
2022-08-22T12:46:10.350Z,9773
2022-08-22T12:47:26.589Z,6542
2022-08-22T12:48:41.843Z,2259
2022-08-22T12:49:57.108Z,6410
2022-08-22T12:51:13.335Z,7626
2022-08-22T12:52:29.578Z,8077
2022-08-22T12:53:45.808Z,10250
2022-08-22T12:55:02.055Z,5452
2022-08-22T12:56:18.297Z,7579
2022-08-22T12:57:34.538Z,8249
2022-08-22T12:58:50.778Z,3201
2022-08-22T13:00:07.011Z,2911
2022-08-22T13:01:23.254Z,2363
2022-08-22T13:02:39.501Z,2071
2022-08-22T13:03:55.732Z,1932
2022-08-22T13:05:11.974Z,1835
2022-08-22T13:06:27.238Z,1042
2022-08-22T13:07:43.469Z,3766
2022-08-22T13:08:59.720Z,3530
2022-08-22T13:10:15.952Z,3489
2022-08-22T13:11:32.185Z,2260
2022-08-22T13:12:48.419Z,2450
2022-08-22T13:14:04.666Z,2307
2022-08-22T13:15:19.934Z,2094
2022-08-22T13:16:35.189Z,2039
2022-08-22T13:17:51.425Z,1822
2022-08-22T13:19:06.690Z,1791
2022-08-22T13:20:21.000Z,1961
2022-08-22T13:21:38.183Z,1884
2022-08-22T13:22:54.427Z,2262
2022-08-22T13:24:10.650Z,1785
2022-08-22T13:25:26.892Z,1675
2022-08-22T13:26:43.131Z,1660
2022-08-22T13:27:59.000Z,1633
2022-08-22T13:29:15.609Z,1609
2022-08-22T13:30:31.855Z,1582
2022-08-22T13:31:48.102Z,1535
2022-08-22T13:33:04.324Z,1498
2022-08-22T13:34:20.581Z,1464
2022-08-22T13:35:36.811Z,1432
2022-08-22T13:36:52.054Z,1384
2022-08-22T13:38:08.318Z,1329
2022-08-22T13:39:24.531Z,1293
2022-08-22T13:40:40.790Z,1260
2022-08-22T13:41:57.015Z,1188
2022-08-22T13:43:13.269Z,1107
2022-08-22T13:44:29.498Z,1039
2022-08-22T13:45:44.765Z,989
2022-08-22T13:47:00.007Z,965
2022-08-22T13:48:16.241Z,943
2022-08-22T13:49:32.498Z,945
2022-08-22T13:50:48.724Z,959
2022-08-22T13:52:04.963Z,962
2022-08-22T13:53:21.206Z,958
2022-08-22T13:54:37.442Z,962
2022-08-22T13:55:53.700Z,958
2022-08-22T13:57:09.928Z,959
2022-08-22T13:58:26.165Z,962
2022-08-22T13:59:42.396Z,977
2022-08-22T14:00:58.647Z,988
2022-08-22T14:02:14.882Z,1013
2022-08-22T14:03:30.147Z,1041
2022-08-22T14:04:46.381Z,1068
2022-08-22T14:06:02.622Z,1088
2022-08-22T14:07:18.849Z,1111
2022-08-22T14:08:35.092Z,1133
2022-08-22T14:09:51.330Z,1151
2022-08-22T14:11:07.556Z,1159
2022-08-22T14:12:22.826Z,1158
2022-08-22T14:13:38.074Z,1137
2022-08-22T14:14:53.339Z,1122
2022-08-22T14:16:08.594Z,1115
2022-08-22T14:17:24.841Z,1094
2022-08-22T14:18:41.071Z,1080
2022-08-22T14:19:57.316Z,1081
2022-08-22T14:21:13.561Z,1087
2022-08-22T14:22:29.785Z,1081
2022-08-22T14:23:46.024Z,1076
2022-08-22T14:25:02.269Z,1062
2022-08-22T14:26:18.522Z,1080
2022-08-22T14:27:34.761Z,1070
2022-08-22T14:28:50.994Z,1069
2022-08-22T14:30:07.218Z,938
2022-08-22T14:31:23.458Z,1175
2022-08-22T14:32:38.708Z,1259
2022-08-22T14:33:54.954Z,1179
2022-08-22T14:35:11.205Z,1138
2022-08-22T14:36:27.422Z,1045
2022-08-22T14:37:43.669Z,1211
2022-08-22T14:38:59.899Z,1218
2022-08-22T14:40:16.158Z,1313
2022-08-22T14:41:32.394Z,1196
2022-08-22T14:42:47.657Z,1143
2022-08-22T14:44:02.911Z,1115
2022-08-22T14:45:18.159Z,1070
2022-08-22T14:46:33.402Z,1158
2022-08-22T14:47:48.671Z,1247
2022-08-22T14:49:03.918Z,1249
2022-08-22T14:50:19.187Z,1247
2022-08-22T14:51:34.447Z,1237
2022-08-22T14:52:50.677Z,1277
2022-08-22T14:54:06.905Z,1172
2022-08-22T14:55:23.172Z,1059
2022-08-22T14:56:39.385Z,996
2022-08-22T14:57:55.637Z,953
2022-08-22T14:59:11.869Z,909
2022-08-22T15:00:28.113Z,878
2022-08-22T15:01:44.340Z,860
2022-08-22T15:03:00.597Z,831
2022-08-22T15:04:16.825Z,811
2022-08-22T15:05:33.052Z,847
2022-08-22T15:06:49.309Z,843
2022-08-22T15:08:04.568Z,889
2022-08-22T15:09:20.792Z,905
2022-08-22T15:10:37.047Z,890
2022-08-22T15:11:53.279Z,975
2022-08-22T15:13:09.508Z,966
2022-08-22T15:14:25.746Z,984
2022-08-22T15:15:41.993Z,952
2022-08-22T15:16:57.249Z,992
2022-08-22T15:18:12.499Z,969
2022-08-22T15:19:27.760Z,958
2022-08-22T15:20:43.018Z,961
2022-08-22T15:21:59.247Z,954
2022-08-22T15:23:15.487Z,941
2022-08-22T15:24:31.729Z,919
2022-08-22T15:25:47.971Z,911
2022-08-22T15:27:04.196Z,896
2022-08-22T15:28:20.455Z,867
2022-08-22T15:29:36.680Z,836
2022-08-22T15:30:52.917Z,807
2022-08-22T15:32:09.157Z,785
2022-08-22T15:33:25.395Z,759
2022-08-22T15:34:41.635Z,731
2022-08-22T15:35:57.886Z,701
2022-08-22T15:37:13.123Z,692
2022-08-22T15:38:29.364Z,675
2022-08-22T15:39:45.611Z,647
2022-08-22T15:41:01.840Z,611
2022-08-22T15:42:18.096Z,593
2022-08-22T15:43:34.323Z,561
2022-08-22T15:44:50.558Z,523
2022-08-22T15:46:05.829Z,535
2022-08-22T15:47:21.076Z,518
2022-08-22T15:48:36.337Z,491
2022-08-22T15:49:51.596Z,537
2022-08-22T15:51:07.821Z,451
2022-08-22T15:52:24.061Z,460
2022-08-22T15:53:40.304Z,450
2022-08-22T15:54:56.538Z,347
2022-08-22T15:56:12.779Z,571
2022-08-22T15:57:29.030Z,656
2022-08-22T15:58:45.261Z,579
2022-08-22T16:00:01.483Z,455
2022-08-22T16:01:17.739Z,425
2022-08-22T16:02:33.966Z,425
2022-08-22T16:03:50.214Z,445
2022-08-22T16:05:06.447Z,441
2022-08-22T16:06:21.701Z,443
2022-08-22T16:07:37.933Z,436
2022-08-22T16:08:54.176Z,435
2022-08-22T16:10:10.421Z,438
2022-08-22T16:11:26.653Z,436
2022-08-22T16:12:42.905Z,432
2022-08-22T16:13:59.133Z,434
2022-08-22T16:15:14.382Z,432
2022-08-22T16:17:45.883Z,429
2022-08-22T16:19:01.151Z,425
2022-08-22T16:20:16.400Z,419
2022-08-22T16:21:32.633Z,413
2022-08-22T16:22:48.867Z,402
2022-08-22T16:24:05.127Z,393
2022-08-22T16:25:21.351Z,382
2022-08-22T16:26:37.592Z,367
2022-08-22T16:27:53.823Z,353
2022-08-22T16:29:10.077Z,342
2022-08-22T16:30:26.304Z,330
2022-08-22T16:31:42.554Z,312
2022-08-22T16:32:58.778Z,300
2022-08-22T16:34:15.030Z,298
2022-08-22T16:35:31.254Z,292
2022-08-22T16:36:46.518Z,283
2022-08-22T16:38:02.748Z,276
2022-08-22T16:39:18.997Z,274
2022-08-22T16:40:35.220Z,270
2022-08-22T16:41:51.460Z,268
2022-08-22T16:43:07.706Z,267
2022-08-22T16:44:23.936Z,266
2022-08-22T16:45:39.200Z,263
2022-08-22T16:46:54.456Z,264
2022-08-22T16:48:10.697Z,261
2022-08-22T16:49:25.954Z,258
2022-08-22T16:50:42.195Z,255
2022-08-22T16:51:58.440Z,258
2022-08-22T16:53:14.660Z,258
2022-08-22T16:54:30.917Z,258
2022-08-22T16:55:47.148Z,253
2022-08-22T16:57:03.391Z,257
2022-08-22T16:58:19.622Z,259
2022-08-22T16:59:35.855Z,253
2022-08-22T17:00:52.089Z,249
2022-08-22T17:02:08.339Z,240
2022-08-22T17:03:24.579Z,233
2022-08-22T17:04:40.814Z,227
2022-08-22T17:05:56.071Z,217
2022-08-22T17:07:12.298Z,210
2022-08-22T17:08:28.546Z,198
2022-08-22T17:09:44.773Z,189
2022-08-22T17:11:01.011Z,180
2022-08-22T17:12:16.271Z,173
2022-08-22T17:13:31.525Z,164
2022-08-22T17:14:46.801Z,154
2022-08-22T17:16:02.043Z,142
2022-08-22T17:17:17.304Z,111
2022-08-22T17:18:32.557Z,123
2022-08-22T17:19:48.797Z,106
2022-08-22T17:21:05.027Z,167
2022-08-22T17:22:21.266Z,227
2022-08-22T17:23:37.515Z,141
2022-08-22T17:24:53.758Z,171
2022-08-22T17:26:09.988Z,250
2022-08-22T17:27:26.227Z,260
2022-08-22T17:28:42.461Z,242
2022-08-22T17:29:58.693Z,182
2022-08-22T17:31:14.929Z,141
2022-08-22T17:32:31.178Z,117
2022-08-22T17:33:47.405Z,109
2022-08-22T17:35:02.673Z,99
2022-08-22T17:36:18.897Z,83
2022-08-22T17:37:35.137Z,84
2022-08-22T17:38:51.378Z,82
2022-08-22T17:40:07.626Z,66
2022-08-22T17:41:23.850Z,62